sensor_id;sensor_type;location;lat;lon;timestamp;P1;durP1;ratioP1;P2;durP2;ratioP2
68993;SDS011;56054;50.968;5.816;2022-10-18T00:01:03;10.05;;;4.88;;
68993;SDS011;56054;50.968;5.816;2022-10-18T00:04:11;13.52;;;5.57;;
68993;SDS011;56054;50.968;5.816;2022-10-18T00:07:20;10.88;;;5.32;;
68993;SDS011;56054;50.968;5.816;2022-10-18T00:10:27;9.48;;;5.72;;
68993;SDS011;56054;50.968;5.816;2022-10-18T00:13:33;7.75;;;5.00;;
68993;SDS011;56054;50.968;5.816;2022-10-18T00:16:41;7.47;;;5.28;;
68993;SDS011;56054;50.968;5.816;2022-10-18T00:19:48;7.90;;;5.55;;
68993;SDS011;56054;50.968;5.816;2022-10-18T00:22:55;8.27;;;5.85;;
68993;SDS011;56054;50.968;5.816;2022-10-18T00:26:06;9.88;;;4.97;;
68993;SDS011;56054;50.968;5.816;2022-10-18T00:29:18;6.57;;;4.82;;
68993;SDS011;56054;50.968;5.816;2022-10-18T00:32:40;7.55;;;4.95;;
68993;SDS011;56054;50.968;5.816;2022-10-18T00:35:50;11.45;;;5.43;;
68993;SDS011;56054;50.968;5.816;2022-10-18T00:38:58;11.63;;;5.65;;
68993;SDS011;56054;50.968;5.816;2022-10-18T00:42:06;9.00;;;5.32;;
68993;SDS011;56054;50.968;5.816;2022-10-18T00:45:25;8.75;;;5.40;;
68993;SDS011;56054;50.968;5.816;2022-10-18T00:48:32;9.52;;;5.53;;
68993;SDS011;56054;50.968;5.816;2022-10-18T00:51:47;10.10;;;5.35;;
68993;SDS011;56054;50.968;5.816;2022-10-18T00:54:56;9.15;;;6.05;;
68993;SDS011;56054;50.968;5.816;2022-10-18T00:58:05;7.43;;;4.30;;
68993;SDS011;56054;50.968;5.816;2022-10-18T01:01:15;8.52;;;4.55;;
68993;SDS011;56054;50.968;5.816;2022-10-18T01:04:24;7.97;;;5.32;;
68993;SDS011;56054;50.968;5.816;2022-10-18T01:11:54;10.65;;;3.55;;
68993;SDS011;56054;50.968;5.816;2022-10-18T01:22:41;5.68;;;3.03;;
68993;SDS011;56054;50.968;5.816;2022-10-18T01:36:44;5.65;;;3.30;;
68993;SDS011;56054;50.968;5.816;2022-10-18T01:39:55;7.40;;;3.67;;
68993;SDS011;56054;50.968;5.816;2022-10-18T01:43:05;8.32;;;4.60;;
68993;SDS011;56054;50.968;5.816;2022-10-18T01:46:21;8.90;;;5.13;;
68993;SDS011;56054;50.968;5.816;2022-10-18T01:53:22;6.93;;;4.53;;
68993;SDS011;56054;50.968;5.816;2022-10-18T02:03:34;12.85;;;6.53;;
68993;SDS011;56054;50.968;5.816;2022-10-18T02:06:45;11.60;;;6.60;;
68993;SDS011;56054;50.968;5.816;2022-10-18T02:13:26;12.48;;;6.60;;
68993;SDS011;56054;50.968;5.816;2022-10-18T02:16:40;8.73;;;6.32;;
68993;SDS011;56054;50.968;5.816;2022-10-18T02:19:52;9.20;;;5.95;;
68993;SDS011;56054;50.968;5.816;2022-10-18T02:23:01;10.52;;;5.72;;
68993;SDS011;56054;50.968;5.816;2022-10-18T02:26:10;13.05;;;6.43;;
68993;SDS011;56054;50.968;5.816;2022-10-18T02:29:20;10.00;;;6.43;;
68993;SDS011;56054;50.968;5.816;2022-10-18T02:32:31;10.60;;;6.18;;
68993;SDS011;56054;50.968;5.816;2022-10-18T02:35:44;8.02;;;5.10;;
68993;SDS011;56054;50.968;5.816;2022-10-18T02:38:58;10.35;;;5.43;;
68993;SDS011;56054;50.968;5.816;2022-10-18T02:42:16;9.45;;;4.93;;
68993;SDS011;56054;50.968;5.816;2022-10-18T02:45:25;7.13;;;5.10;;
68993;SDS011;56054;50.968;5.816;2022-10-18T02:48:33;9.38;;;5.80;;
68993;SDS011;56054;50.968;5.816;2022-10-18T02:51:40;7.60;;;5.20;;
68993;SDS011;56054;50.968;5.816;2022-10-18T02:54:47;7.63;;;5.43;;
68993;SDS011;56054;50.968;5.816;2022-10-18T02:57:54;10.57;;;5.60;;
68993;SDS011;56054;50.968;5.816;2022-10-18T03:01:01;8.13;;;5.70;;
68993;SDS011;56054;50.968;5.816;2022-10-18T03:04:08;10.20;;;6.20;;
68993;SDS011;56054;50.968;5.816;2022-10-18T03:07:15;9.80;;;6.68;;
68993;SDS011;56054;50.968;5.816;2022-10-18T03:10:22;10.50;;;6.47;;
68993;SDS011;56054;50.968;5.816;2022-10-18T03:13:29;11.27;;;7.22;;
68993;SDS011;56054;50.968;5.816;2022-10-18T03:16:41;12.40;;;6.85;;
68993;SDS011;56054;50.968;5.816;2022-10-18T03:19:50;18.80;;;9.07;;
68993;SDS011;56054;50.968;5.816;2022-10-18T03:22:58;17.38;;;9.52;;
68993;SDS011;56054;50.968;5.816;2022-10-18T03:26:05;16.73;;;9.43;;
68993;SDS011;56054;50.968;5.816;2022-10-18T03:29:12;13.90;;;9.60;;
68993;SDS011;56054;50.968;5.816;2022-10-18T03:32:19;17.02;;;9.82;;
68993;SDS011;56054;50.968;5.816;2022-10-18T03:35:26;16.17;;;9.32;;
68993;SDS011;56054;50.968;5.816;2022-10-18T03:38:33;13.82;;;8.85;;
68993;SDS011;56054;50.968;5.816;2022-10-18T03:41:40;18.85;;;9.90;;
68993;SDS011;56054;50.968;5.816;2022-10-18T03:44:47;17.65;;;11.13;;
68993;SDS011;56054;50.968;5.816;2022-10-18T03:48:00;23.00;;;12.32;;
68993;SDS011;56054;50.968;5.816;2022-10-18T03:51:07;21.70;;;12.10;;
68993;SDS011;56054;50.968;5.816;2022-10-18T03:54:14;21.88;;;13.23;;
68993;SDS011;56054;50.968;5.816;2022-10-18T03:57:21;23.38;;;12.95;;
68993;SDS011;56054;50.968;5.816;2022-10-18T04:00:28;22.23;;;12.77;;
68993;SDS011;56054;50.968;5.816;2022-10-18T04:03:35;21.90;;;13.35;;
68993;SDS011;56054;50.968;5.816;2022-10-18T04:06:42;23.60;;;13.95;;
68993;SDS011;56054;50.968;5.816;2022-10-18T04:09:49;22.95;;;14.02;;
68993;SDS011;56054;50.968;5.816;2022-10-18T04:12:56;22.67;;;14.20;;
68993;SDS011;56054;50.968;5.816;2022-10-18T04:16:03;21.98;;;13.55;;
68993;SDS011;56054;50.968;5.816;2022-10-18T04:19:10;24.92;;;14.32;;
68993;SDS011;56054;50.968;5.816;2022-10-18T04:22:17;22.30;;;13.10;;
68993;SDS011;56054;50.968;5.816;2022-10-18T04:25:24;20.58;;;12.07;;
68993;SDS011;56054;50.968;5.816;2022-10-18T04:28:32;20.02;;;12.25;;
68993;SDS011;56054;50.968;5.816;2022-10-18T04:32:21;22.63;;;12.40;;
68993;SDS011;56054;50.968;5.816;2022-10-18T04:35:28;17.38;;;11.85;;
68993;SDS011;56054;50.968;5.816;2022-10-18T04:39:00;18.90;;;11.57;;
68993;SDS011;56054;50.968;5.816;2022-10-18T04:42:11;12.90;;;6.78;;
68993;SDS011;56054;50.968;5.816;2022-10-18T04:45:23;9.48;;;4.63;;
68993;SDS011;56054;50.968;5.816;2022-10-18T04:48:30;7.18;;;3.88;;
68993;SDS011;56054;50.968;5.816;2022-10-18T04:51:37;12.68;;;4.20;;
68993;SDS011;56054;50.968;5.816;2022-10-18T04:54:45;8.48;;;3.70;;
68993;SDS011;56054;50.968;5.816;2022-10-18T04:57:52;8.52;;;4.60;;
68993;SDS011;56054;50.968;5.816;2022-10-18T05:00:59;10.57;;;5.15;;
68993;SDS011;56054;50.968;5.816;2022-10-18T05:04:06;10.27;;;5.43;;
68993;SDS011;56054;50.968;5.816;2022-10-18T05:07:13;10.18;;;5.40;;
68993;SDS011;56054;50.968;5.816;2022-10-18T05:10:35;9.45;;;5.93;;
68993;SDS011;56054;50.968;5.816;2022-10-18T05:13:42;14.15;;;6.35;;
68993;SDS011;56054;50.968;5.816;2022-10-18T05:16:50;9.80;;;6.15;;
68993;SDS011;56054;50.968;5.816;2022-10-18T05:19:57;13.25;;;7.25;;
68993;SDS011;56054;50.968;5.816;2022-10-18T05:23:04;8.77;;;6.57;;
68993;SDS011;56054;50.968;5.816;2022-10-18T05:26:11;9.95;;;5.88;;
68993;SDS011;56054;50.968;5.816;2022-10-18T05:29:18;9.60;;;5.68;;
68993;SDS011;56054;50.968;5.816;2022-10-18T05:32:25;9.77;;;6.28;;
68993;SDS011;56054;50.968;5.816;2022-10-18T05:35:32;11.88;;;6.18;;
68993;SDS011;56054;50.968;5.816;2022-10-18T05:38:39;9.70;;;6.20;;
68993;SDS011;56054;50.968;5.816;2022-10-18T05:41:47;14.10;;;6.63;;
68993;SDS011;56054;50.968;5.816;2022-10-18T05:44:54;12.25;;;7.65;;
68993;SDS011;56054;50.968;5.816;2022-10-18T05:48:01;16.65;;;8.18;;
68993;SDS011;56054;50.968;5.816;2022-10-18T05:51:08;14.20;;;7.50;;
68993;SDS011;56054;50.968;5.816;2022-10-18T05:54:15;10.82;;;7.28;;
68993;SDS011;56054;50.968;5.816;2022-10-18T05:57:26;11.68;;;7.60;;
68993;SDS011;56054;50.968;5.816;2022-10-18T06:04:00;11.70;;;7.07;;
68993;SDS011;56054;50.968;5.816;2022-10-18T06:07:08;12.00;;;7.78;;
68993;SDS011;56054;50.968;5.816;2022-10-18T06:10:16;16.27;;;7.93;;
68993;SDS011;56054;50.968;5.816;2022-10-18T06:13:23;12.35;;;8.02;;
68993;SDS011;56054;50.968;5.816;2022-10-18T06:17:00;12.63;;;7.63;;
68993;SDS011;56054;50.968;5.816;2022-10-18T06:20:39;13.32;;;7.43;;
68993;SDS011;56054;50.968;5.816;2022-10-18T06:23:54;12.60;;;7.53;;
68993;SDS011;56054;50.968;5.816;2022-10-18T06:27:03;16.77;;;9.15;;
68993;SDS011;56054;50.968;5.816;2022-10-18T06:30:25;17.00;;;9.30;;
68993;SDS011;56054;50.968;5.816;2022-10-18T06:33:44;15.20;;;9.07;;
68993;SDS011;56054;50.968;5.816;2022-10-18T06:36:58;13.63;;;8.90;;
68993;SDS011;56054;50.968;5.816;2022-10-18T06:40:11;17.20;;;9.40;;
68993;SDS011;56054;50.968;5.816;2022-10-18T06:43:25;13.80;;;9.23;;
68993;SDS011;56054;50.968;5.816;2022-10-18T06:46:33;14.93;;;9.95;;
68993;SDS011;56054;50.968;5.816;2022-10-18T06:49:40;21.70;;;13.18;;
68993;SDS011;56054;50.968;5.816;2022-10-18T06:52:51;24.33;;;14.13;;
68993;SDS011;56054;50.968;5.816;2022-10-18T06:55:59;24.33;;;16.23;;
68993;SDS011;56054;50.968;5.816;2022-10-18T06:59:15;27.08;;;16.60;;
68993;SDS011;56054;50.968;5.816;2022-10-18T07:02:31;26.77;;;15.23;;
68993;SDS011;56054;50.968;5.816;2022-10-18T07:05:50;29.60;;;16.05;;
68993;SDS011;56054;50.968;5.816;2022-10-18T07:09:01;28.52;;;15.27;;
68993;SDS011;56054;50.968;5.816;2022-10-18T07:12:08;26.05;;;17.70;;
68993;SDS011;56054;50.968;5.816;2022-10-18T07:15:15;25.88;;;16.10;;
68993;SDS011;56054;50.968;5.816;2022-10-18T07:18:22;26.52;;;16.10;;
68993;SDS011;56054;50.968;5.816;2022-10-18T07:21:29;28.10;;;16.40;;
68993;SDS011;56054;50.968;5.816;2022-10-18T07:24:36;27.85;;;17.38;;
68993;SDS011;56054;50.968;5.816;2022-10-18T07:27:43;24.65;;;17.00;;
68993;SDS011;56054;50.968;5.816;2022-10-18T07:30:50;26.20;;;17.40;;
68993;SDS011;56054;50.968;5.816;2022-10-18T07:33:57;29.80;;;17.80;;
68993;SDS011;56054;50.968;5.816;2022-10-18T07:37:04;25.45;;;17.52;;
68993;SDS011;56054;50.968;5.816;2022-10-18T07:40:11;27.70;;;19.00;;
68993;SDS011;56054;50.968;5.816;2022-10-18T07:43:19;29.80;;;19.40;;
68993;SDS011;56054;50.968;5.816;2022-10-18T07:46:30;29.67;;;20.50;;
68993;SDS011;56054;50.968;5.816;2022-10-18T07:49:38;32.55;;;20.13;;
68993;SDS011;56054;50.968;5.816;2022-10-18T07:52:50;35.35;;;20.88;;
68993;SDS011;56054;50.968;5.816;2022-10-18T07:56:04;29.83;;;19.95;;
68993;SDS011;56054;50.968;5.816;2022-10-18T07:59:12;32.17;;;21.35;;
68993;SDS011;56054;50.968;5.816;2022-10-18T08:02:20;31.77;;;20.48;;
68993;SDS011;56054;50.968;5.816;2022-10-18T08:05:27;31.45;;;21.60;;
68993;SDS011;56054;50.968;5.816;2022-10-18T08:08:34;34.22;;;21.55;;
68993;SDS011;56054;50.968;5.816;2022-10-18T08:11:43;33.20;;;20.92;;
68993;SDS011;56054;50.968;5.816;2022-10-18T08:14:50;43.65;;;23.75;;
68993;SDS011;56054;50.968;5.816;2022-10-18T08:17:57;36.30;;;22.65;;
68993;SDS011;56054;50.968;5.816;2022-10-18T08:21:05;40.30;;;23.83;;
68993;SDS011;56054;50.968;5.816;2022-10-18T08:24:13;40.75;;;24.90;;
68993;SDS011;56054;50.968;5.816;2022-10-18T08:27:20;40.92;;;26.17;;
68993;SDS011;56054;50.968;5.816;2022-10-18T08:30:27;44.42;;;26.00;;
68993;SDS011;56054;50.968;5.816;2022-10-18T08:33:34;45.08;;;26.13;;
68993;SDS011;56054;50.968;5.816;2022-10-18T08:36:41;45.55;;;25.27;;
68993;SDS011;56054;50.968;5.816;2022-10-18T08:39:48;40.25;;;26.17;;
68993;SDS011;56054;50.968;5.816;2022-10-18T08:42:57;47.33;;;25.88;;
68993;SDS011;56054;50.968;5.816;2022-10-18T08:46:12;48.85;;;25.73;;
68993;SDS011;56054;50.968;5.816;2022-10-18T08:49:28;44.53;;;25.25;;
68993;SDS011;56054;50.968;5.816;2022-10-18T08:56:18;45.28;;;24.00;;
68993;SDS011;56054;50.968;5.816;2022-10-18T08:59:25;44.05;;;25.08;;
68993;SDS011;56054;50.968;5.816;2022-10-18T09:02:45;44.90;;;24.83;;
68993;SDS011;56054;50.968;5.816;2022-10-18T09:05:55;44.95;;;24.23;;
68993;SDS011;56054;50.968;5.816;2022-10-18T09:23:20;45.17;;;24.63;;
68993;SDS011;56054;50.968;5.816;2022-10-18T09:26:36;39.65;;;25.15;;
68993;SDS011;56054;50.968;5.816;2022-10-18T09:36:33;44.92;;;24.52;;
68993;SDS011;56054;50.968;5.816;2022-10-18T09:39:43;42.45;;;24.77;;
68993;SDS011;56054;50.968;5.816;2022-10-18T09:42:54;45.95;;;23.75;;
68993;SDS011;56054;50.968;5.816;2022-10-18T09:46:12;43.65;;;23.58;;
68993;SDS011;56054;50.968;5.816;2022-10-18T09:49:22;41.35;;;23.58;;
68993;SDS011;56054;50.968;5.816;2022-10-18T09:52:38;44.60;;;24.92;;
68993;SDS011;56054;50.968;5.816;2022-10-18T09:59:04;41.15;;;23.25;;
68993;SDS011;56054;50.968;5.816;2022-10-18T10:02:30;38.92;;;23.92;;
68993;SDS011;56054;50.968;5.816;2022-10-18T10:05:37;38.45;;;23.63;;
68993;SDS011;56054;50.968;5.816;2022-10-18T10:08:47;38.90;;;24.20;;
68993;SDS011;56054;50.968;5.816;2022-10-18T10:11:59;40.20;;;24.30;;
68993;SDS011;56054;50.968;5.816;2022-10-18T10:15:07;37.30;;;22.80;;
68993;SDS011;56054;50.968;5.816;2022-10-18T10:18:38;39.65;;;22.35;;
68993;SDS011;56054;50.968;5.816;2022-10-18T10:21:46;36.63;;;21.40;;
68993;SDS011;56054;50.968;5.816;2022-10-18T10:24:56;35.60;;;21.60;;
68993;SDS011;56054;50.968;5.816;2022-10-18T10:28:06;33.03;;;20.73;;
68993;SDS011;56054;50.968;5.816;2022-10-18T10:31:28;38.83;;;21.52;;
68993;SDS011;56054;50.968;5.816;2022-10-18T10:34:35;33.05;;;20.80;;
68993;SDS011;56054;50.968;5.816;2022-10-18T10:37:42;36.45;;;22.05;;
68993;SDS011;56054;50.968;5.816;2022-10-18T10:40:57;36.42;;;21.30;;
68993;SDS011;56054;50.968;5.816;2022-10-18T10:44:12;36.38;;;21.02;;
68993;SDS011;56054;50.968;5.816;2022-10-18T10:47:31;33.35;;;20.70;;
68993;SDS011;56054;50.968;5.816;2022-10-18T10:54:23;32.88;;;19.80;;
68993;SDS011;56054;50.968;5.816;2022-10-18T10:57:33;29.58;;;19.50;;
68993;SDS011;56054;50.968;5.816;2022-10-18T11:00:41;29.80;;;19.35;;
68993;SDS011;56054;50.968;5.816;2022-10-18T11:03:57;31.33;;;19.65;;
68993;SDS011;56054;50.968;5.816;2022-10-18T11:10:59;32.60;;;17.05;;
68993;SDS011;56054;50.968;5.816;2022-10-18T11:14:19;27.73;;;15.32;;
68993;SDS011;56054;50.968;5.816;2022-10-18T11:17:34;29.77;;;15.35;;
68993;SDS011;56054;50.968;5.816;2022-10-18T11:20:50;28.85;;;15.90;;
68993;SDS011;56054;50.968;5.816;2022-10-18T11:24:06;31.52;;;14.77;;
68993;SDS011;56054;50.968;5.816;2022-10-18T11:30:37;21.55;;;13.07;;
68993;SDS011;56054;50.968;5.816;2022-10-18T11:41:22;25.90;;;14.73;;
68993;SDS011;56054;50.968;5.816;2022-10-18T11:54:40;34.90;;;18.17;;
68993;SDS011;56054;50.968;5.816;2022-10-18T11:58:01;30.13;;;16.52;;
68993;SDS011;56054;50.968;5.816;2022-10-18T12:05:17;23.83;;;15.82;;
68993;SDS011;56054;50.968;5.816;2022-10-18T12:08:59;33.95;;;16.88;;
68993;SDS011;56054;50.968;5.816;2022-10-18T12:16:01;32.20;;;17.02;;
68993;SDS011;56054;50.968;5.816;2022-10-18T12:19:13;26.73;;;15.45;;
68993;SDS011;56054;50.968;5.816;2022-10-18T12:22:34;25.15;;;15.80;;
68993;SDS011;56054;50.968;5.816;2022-10-18T12:25:50;26.10;;;15.55;;
68993;SDS011;56054;50.968;5.816;2022-10-18T12:29:20;31.30;;;15.02;;
68993;SDS011;56054;50.968;5.816;2022-10-18T12:32:54;31.98;;;15.52;;
68993;SDS011;56054;50.968;5.816;2022-10-18T12:36:16;27.05;;;13.15;;
68993;SDS011;56054;50.968;5.816;2022-10-18T12:39:28;25.70;;;12.05;;
68993;SDS011;56054;50.968;5.816;2022-10-18T12:42:40;19.33;;;12.32;;
68993;SDS011;56054;50.968;5.816;2022-10-18T12:45:59;24.00;;;12.63;;
68993;SDS011;56054;50.968;5.816;2022-10-18T12:49:08;22.67;;;11.45;;
68993;SDS011;56054;50.968;5.816;2022-10-18T12:52:19;26.88;;;11.23;;
68993;SDS011;56054;50.968;5.816;2022-10-18T12:55:33;22.73;;;8.75;;
68993;SDS011;56054;50.968;5.816;2022-10-18T12:58:42;19.23;;;9.10;;
68993;SDS011;56054;50.968;5.816;2022-10-18T13:04:56;19.98;;;10.00;;
68993;SDS011;56054;50.968;5.816;2022-10-18T13:11:34;23.90;;;9.90;;
68993;SDS011;56054;50.968;5.816;2022-10-18T13:28:26;22.85;;;10.95;;
68993;SDS011;56054;50.968;5.816;2022-10-18T13:35:58;27.58;;;10.05;;
68993;SDS011;56054;50.968;5.816;2022-10-18T13:39:18;20.73;;;9.63;;
68993;SDS011;56054;50.968;5.816;2022-10-18T13:42:30;19.67;;;9.90;;
68993;SDS011;56054;50.968;5.816;2022-10-18T13:45:43;22.70;;;10.18;;
68993;SDS011;56054;50.968;5.816;2022-10-18T13:52:55;23.50;;;10.98;;
68993;SDS011;56054;50.968;5.816;2022-10-18T13:56:22;25.80;;;11.50;;
68993;SDS011;56054;50.968;5.816;2022-10-18T13:59:48;25.00;;;11.35;;
68993;SDS011;56054;50.968;5.816;2022-10-18T14:06:27;27.50;;;12.52;;
68993;SDS011;56054;50.968;5.816;2022-10-18T14:09:45;21.10;;;11.65;;
68993;SDS011;56054;50.968;5.816;2022-10-18T14:12:57;25.25;;;11.35;;
68993;SDS011;56054;50.968;5.816;2022-10-18T14:19:53;19.02;;;10.20;;
68993;SDS011;56054;50.968;5.816;2022-10-18T14:23:22;22.52;;;9.70;;
68993;SDS011;56054;50.968;5.816;2022-10-18T14:26:33;24.63;;;9.20;;
68993;SDS011;56054;50.968;5.816;2022-10-18T14:29:41;23.17;;;9.88;;
68993;SDS011;56054;50.968;5.816;2022-10-18T14:32:50;19.27;;;8.70;;
68993;SDS011;56054;50.968;5.816;2022-10-18T14:36:08;20.88;;;8.10;;
68993;SDS011;56054;50.968;5.816;2022-10-18T14:39:23;21.00;;;8.00;;
68993;SDS011;56054;50.968;5.816;2022-10-18T14:42:32;22.77;;;7.65;;
68993;SDS011;56054;50.968;5.816;2022-10-18T14:45:39;17.38;;;7.57;;
68993;SDS011;56054;50.968;5.816;2022-10-18T14:48:51;20.60;;;7.68;;
68993;SDS011;56054;50.968;5.816;2022-10-18T14:52:05;17.73;;;5.68;;
68993;SDS011;56054;50.968;5.816;2022-10-18T14:55:22;22.70;;;6.80;;
68993;SDS011;56054;50.968;5.816;2022-10-18T14:58:31;16.45;;;5.45;;
68993;SDS011;56054;50.968;5.816;2022-10-18T15:01:49;15.90;;;5.38;;
68993;SDS011;56054;50.968;5.816;2022-10-18T15:05:08;12.82;;;5.40;;
68993;SDS011;56054;50.968;5.816;2022-10-18T15:08:29;10.48;;;4.68;;
68993;SDS011;56054;50.968;5.816;2022-10-18T15:11:41;19.83;;;6.18;;
68993;SDS011;56054;50.968;5.816;2022-10-18T15:14:51;18.50;;;6.60;;
68993;SDS011;56054;50.968;5.816;2022-10-18T15:17:59;17.45;;;5.95;;
68993;SDS011;56054;50.968;5.816;2022-10-18T15:21:08;19.67;;;6.57;;
68993;SDS011;56054;50.968;5.816;2022-10-18T15:27:45;14.68;;;6.32;;
68993;SDS011;56054;50.968;5.816;2022-10-18T15:30:54;21.60;;;8.18;;
68993;SDS011;56054;50.968;5.816;2022-10-18T15:40:37;20.13;;;7.55;;
68993;SDS011;56054;50.968;5.816;2022-10-18T15:43:59;15.20;;;6.95;;
68993;SDS011;56054;50.968;5.816;2022-10-18T15:47:55;15.65;;;7.50;;
68993;SDS011;56054;50.968;5.816;2022-10-18T15:54:53;20.67;;;8.15;;
68993;SDS011;56054;50.968;5.816;2022-10-18T16:05:35;18.20;;;8.80;;
68993;SDS011;56054;50.968;5.816;2022-10-18T16:09:18;14.25;;;7.03;;
68993;SDS011;56054;50.968;5.816;2022-10-18T16:12:52;17.27;;;7.40;;
68993;SDS011;56054;50.968;5.816;2022-10-18T16:15:59;18.02;;;7.35;;
68993;SDS011;56054;50.968;5.816;2022-10-18T16:19:06;20.23;;;7.47;;
68993;SDS011;56054;50.968;5.816;2022-10-18T16:22:14;20.88;;;8.02;;
68993;SDS011;56054;50.968;5.816;2022-10-18T16:25:26;20.13;;;8.05;;
68993;SDS011;56054;50.968;5.816;2022-10-18T16:28:37;18.85;;;7.70;;
68993;SDS011;56054;50.968;5.816;2022-10-18T16:31:46;17.25;;;7.55;;
68993;SDS011;56054;50.968;5.816;2022-10-18T16:35:02;15.65;;;7.20;;
68993;SDS011;56054;50.968;5.816;2022-10-18T16:38:15;16.33;;;7.97;;
68993;SDS011;56054;50.968;5.816;2022-10-18T16:41:36;13.95;;;7.63;;
68993;SDS011;56054;50.968;5.816;2022-10-18T16:44:43;19.77;;;7.72;;
68993;SDS011;56054;50.968;5.816;2022-10-18T16:47:51;14.30;;;7.38;;
68993;SDS011;56054;50.968;5.816;2022-10-18T16:50:58;16.65;;;7.90;;
68993;SDS011;56054;50.968;5.816;2022-10-18T16:54:11;13.60;;;7.63;;
68993;SDS011;56054;50.968;5.816;2022-10-18T16:57:18;19.00;;;8.23;;
68993;SDS011;56054;50.968;5.816;2022-10-18T17:00:26;19.70;;;8.32;;
68993;SDS011;56054;50.968;5.816;2022-10-18T17:03:37;16.77;;;8.43;;
68993;SDS011;56054;50.968;5.816;2022-10-18T17:06:44;17.58;;;9.60;;
68993;SDS011;56054;50.968;5.816;2022-10-18T17:10:03;20.70;;;9.82;;
68993;SDS011;56054;50.968;5.816;2022-10-18T17:13:26;18.67;;;9.40;;
68993;SDS011;56054;50.968;5.816;2022-10-18T17:17:10;18.95;;;9.00;;
68993;SDS011;56054;50.968;5.816;2022-10-18T17:20:37;16.58;;;8.43;;
68993;SDS011;56054;50.968;5.816;2022-10-18T17:23:45;17.95;;;8.98;;
68993;SDS011;56054;50.968;5.816;2022-10-18T17:26:53;15.23;;;8.55;;
68993;SDS011;56054;50.968;5.816;2022-10-18T17:30:01;23.88;;;9.65;;
68993;SDS011;56054;50.968;5.816;2022-10-18T17:33:13;23.35;;;9.15;;
68993;SDS011;56054;50.968;5.816;2022-10-18T17:36:26;21.45;;;9.55;;
68993;SDS011;56054;50.968;5.816;2022-10-18T17:39:34;12.35;;;8.43;;
68993;SDS011;56054;50.968;5.816;2022-10-18T17:42:41;16.63;;;8.98;;
68993;SDS011;56054;50.968;5.816;2022-10-18T17:45:57;19.58;;;9.55;;
68993;SDS011;56054;50.968;5.816;2022-10-18T17:49:17;21.65;;;9.73;;
68993;SDS011;56054;50.968;5.816;2022-10-18T17:52:24;18.60;;;8.82;;
68993;SDS011;56054;50.968;5.816;2022-10-18T17:55:36;16.77;;;8.25;;
68993;SDS011;56054;50.968;5.816;2022-10-18T17:58:49;17.30;;;8.60;;
68993;SDS011;56054;50.968;5.816;2022-10-18T18:02:06;12.93;;;7.57;;
68993;SDS011;56054;50.968;5.816;2022-10-18T18:05:16;17.17;;;8.20;;
68993;SDS011;56054;50.968;5.816;2022-10-18T18:08:32;26.20;;;8.52;;
68993;SDS011;56054;50.968;5.816;2022-10-18T18:11:42;14.88;;;8.02;;
68993;SDS011;56054;50.968;5.816;2022-10-18T18:14:56;17.13;;;7.95;;
68993;SDS011;56054;50.968;5.816;2022-10-18T18:18:03;17.73;;;9.18;;
68993;SDS011;56054;50.968;5.816;2022-10-18T18:21:11;21.10;;;9.15;;
68993;SDS011;56054;50.968;5.816;2022-10-18T18:24:20;15.70;;;8.90;;
68993;SDS011;56054;50.968;5.816;2022-10-18T18:27:53;18.92;;;9.27;;
68993;SDS011;56054;50.968;5.816;2022-10-18T18:35:26;14.80;;;8.38;;
68993;SDS011;56054;50.968;5.816;2022-10-18T18:39:02;14.63;;;8.02;;
68993;SDS011;56054;50.968;5.816;2022-10-18T18:42:09;14.18;;;8.35;;
68993;SDS011;56054;50.968;5.816;2022-10-18T18:45:16;26.35;;;13.65;;
68993;SDS011;56054;50.968;5.816;2022-10-18T18:48:31;21.77;;;13.60;;
68993;SDS011;56054;50.968;5.816;2022-10-18T18:51:39;30.58;;;15.25;;
68993;SDS011;56054;50.968;5.816;2022-10-18T18:54:48;24.83;;;14.43;;
68993;SDS011;56054;50.968;5.816;2022-10-18T18:57:56;31.52;;;15.55;;
68993;SDS011;56054;50.968;5.816;2022-10-18T19:01:07;33.13;;;16.67;;
68993;SDS011;56054;50.968;5.816;2022-10-18T19:04:16;25.38;;;14.05;;
68993;SDS011;56054;50.968;5.816;2022-10-18T19:07:23;29.88;;;14.40;;
68993;SDS011;56054;50.968;5.816;2022-10-18T19:10:30;24.42;;;14.68;;
68993;SDS011;56054;50.968;5.816;2022-10-18T19:13:37;26.15;;;14.75;;
68993;SDS011;56054;50.968;5.816;2022-10-18T19:16:46;24.58;;;15.43;;
68993;SDS011;56054;50.968;5.816;2022-10-18T19:19:59;29.58;;;15.63;;
68993;SDS011;56054;50.968;5.816;2022-10-18T19:23:06;31.85;;;14.88;;
68993;SDS011;56054;50.968;5.816;2022-10-18T19:29:35;21.17;;;13.15;;
68993;SDS011;56054;50.968;5.816;2022-10-18T19:32:43;23.90;;;11.93;;
68993;SDS011;56054;50.968;5.816;2022-10-18T19:35:50;17.88;;;11.02;;
68993;SDS011;56054;50.968;5.816;2022-10-18T19:38:57;20.45;;;10.10;;
68993;SDS011;56054;50.968;5.816;2022-10-18T19:42:10;20.80;;;10.45;;
68993;SDS011;56054;50.968;5.816;2022-10-18T19:45:23;17.13;;;9.95;;
68993;SDS011;56054;50.968;5.816;2022-10-18T19:48:37;23.27;;;10.38;;
68993;SDS011;56054;50.968;5.816;2022-10-18T19:51:51;24.60;;;10.43;;
68993;SDS011;56054;50.968;5.816;2022-10-18T19:55:10;18.63;;;10.07;;
68993;SDS011;56054;50.968;5.816;2022-10-18T19:58:42;24.83;;;10.15;;
68993;SDS011;56054;50.968;5.816;2022-10-18T20:01:50;18.70;;;10.63;;
68993;SDS011;56054;50.968;5.816;2022-10-18T20:04:57;19.90;;;9.90;;
68993;SDS011;56054;50.968;5.816;2022-10-18T20:08:06;14.13;;;9.00;;
68993;SDS011;56054;50.968;5.816;2022-10-18T20:11:14;18.45;;;9.88;;
68993;SDS011;56054;50.968;5.816;2022-10-18T20:14:25;23.35;;;10.02;;
68993;SDS011;56054;50.968;5.816;2022-10-18T20:17:32;19.60;;;9.23;;
68993;SDS011;56054;50.968;5.816;2022-10-18T20:20:39;18.40;;;10.30;;
68993;SDS011;56054;50.968;5.816;2022-10-18T20:23:47;21.88;;;10.13;;
68993;SDS011;56054;50.968;5.816;2022-10-18T20:26:56;13.85;;;9.07;;
68993;SDS011;56054;50.968;5.816;2022-10-18T20:30:03;20.63;;;10.60;;
68993;SDS011;56054;50.968;5.816;2022-10-18T20:33:11;19.67;;;10.83;;
68993;SDS011;56054;50.968;5.816;2022-10-18T20:36:18;17.65;;;10.05;;
68993;SDS011;56054;50.968;5.816;2022-10-18T20:39:26;21.73;;;10.20;;
68993;SDS011;56054;50.968;5.816;2022-10-18T20:42:36;13.80;;;8.93;;
68993;SDS011;56054;50.968;5.816;2022-10-18T20:45:43;20.90;;;9.77;;
68993;SDS011;56054;50.968;5.816;2022-10-18T20:48:50;18.17;;;10.37;;
68993;SDS011;56054;50.968;5.816;2022-10-18T20:51:58;22.40;;;9.60;;
68993;SDS011;56054;50.968;5.816;2022-10-18T20:55:05;18.58;;;10.50;;
68993;SDS011;56054;50.968;5.816;2022-10-18T20:58:12;18.80;;;9.40;;
68993;SDS011;56054;50.968;5.816;2022-10-18T21:01:23;18.90;;;9.67;;
68993;SDS011;56054;50.968;5.816;2022-10-18T21:04:33;16.27;;;9.40;;
68993;SDS011;56054;50.968;5.816;2022-10-18T21:07:40;18.90;;;8.57;;
68993;SDS011;56054;50.968;5.816;2022-10-18T21:10:47;19.07;;;8.77;;
68993;SDS011;56054;50.968;5.816;2022-10-18T21:13:56;18.77;;;7.60;;
68993;SDS011;56054;50.968;5.816;2022-10-18T21:17:04;15.33;;;8.97;;
68993;SDS011;56054;50.968;5.816;2022-10-18T21:20:11;14.13;;;8.43;;
68993;SDS011;56054;50.968;5.816;2022-10-18T21:23:22;21.73;;;9.07;;
68993;SDS011;56054;50.968;5.816;2022-10-18T21:26:29;18.50;;;10.30;;
68993;SDS011;56054;50.968;5.816;2022-10-18T21:29:36;20.03;;;12.13;;
68993;SDS011;56054;50.968;5.816;2022-10-18T21:32:43;25.43;;;11.20;;
68993;SDS011;56054;50.968;5.816;2022-10-18T21:35:51;17.40;;;9.47;;
68993;SDS011;56054;50.968;5.816;2022-10-18T21:38:58;14.40;;;7.93;;
68993;SDS011;56054;50.968;5.816;2022-10-18T21:42:06;13.33;;;6.53;;